Terminal Aerodrome Forecast
Issued by NWS Twin Cities, MN

Home | Current Version | Previous Version | Text Only | Print | Product List | Glossary On
Versions: 1 2 3 4 5 6 7 8 9 10 11 12 13
000
FTUS43 KMPX 202300
TAFEAU
TAF
KEAU 202327Z 2100/2124 15008KT P6SM BKN070 OVC090
     FM210500 VRB02KT 6SM BR VCSH SCT050 BKN070
     FM210900 VRB02KT 3SM BR VCSH FEW005 SCT070
      TEMPO 2110/2113 1/2SM FG VV005
     FM211300 29004KT 6SM BR SCT090
     FM211600 30010KT P6SM SCT100=

USA.gov is the U.S. government's official web portal to all federal, state and local government web resources and services.